createdAt,value
2022-07-29T00:00:40.385Z,4.07
2022-07-29T00:03:09.458Z,5.88
2022-07-29T00:05:36.364Z,5.55
2022-07-29T00:08:10.650Z,4.25
2022-07-29T00:10:39.611Z,4.05
2022-07-29T00:13:06.709Z,4.68
2022-07-29T00:15:36.153Z,4.78
2022-07-29T00:18:03.173Z,6.15
2022-07-29T00:20:32.743Z,6.93
2022-07-29T00:22:59.820Z,5.78
2022-07-29T00:25:29.062Z,5.35
2022-07-29T00:27:55.966Z,5.90
2022-07-29T00:30:23.238Z,7.00
2022-07-29T00:32:50.158Z,5.78
2022-07-29T00:35:35.287Z,6.40
2022-07-29T00:38:02.215Z,6.30
2022-07-29T00:40:31.422Z,6.20
2022-07-29T00:42:58.376Z,6.53
2022-07-29T00:45:28.893Z,6.38
2022-07-29T00:47:55.759Z,6.13
2022-07-29T00:50:25.097Z,6.03
2022-07-29T00:52:52.679Z,4.90
2022-07-29T00:55:20.156Z,5.70
2022-07-29T00:57:50.906Z,4.78
2022-07-29T01:00:25.748Z,5.15
2022-07-29T01:02:55.455Z,6.85
2022-07-29T01:05:25.554Z,8.13
2022-07-29T01:08:17.062Z,7.85
2022-07-29T01:10:47.487Z,7.10
2022-07-29T01:13:16.799Z,5.57
2022-07-29T01:15:56.864Z,6.30
2022-07-29T01:18:32.183Z,6.35
2022-07-29T01:21:36.744Z,3.28
2022-07-29T01:24:24.935Z,4.10
2022-07-29T01:27:20.883Z,3.55
2022-07-29T01:29:58.269Z,3.88
2022-07-29T01:32:33.391Z,3.75
2022-07-29T01:35:10.232Z,4.47
2022-07-29T01:38:13.489Z,3.95
2022-07-29T01:40:56.770Z,4.28
2022-07-29T01:43:58.748Z,3.50
2022-07-29T01:46:41.846Z,4.25
2022-07-29T01:49:21.536Z,3.53
2022-07-29T01:52:02.647Z,3.15
2022-07-29T01:54:55.530Z,2.67
2022-07-29T01:57:29.335Z,5.50
2022-07-29T02:00:01.222Z,4.28
2022-07-29T02:02:31.113Z,3.10
2022-07-29T02:05:01.445Z,3.30
2022-07-29T02:07:34.070Z,2.95
2022-07-29T02:10:05.709Z,2.85
2022-07-29T02:12:34.898Z,2.35
2022-07-29T02:15:06.734Z,2.40
2022-07-29T02:17:53.929Z,2.75
2022-07-29T02:20:23.461Z,2.35
2022-07-29T02:22:52.096Z,2.90
2022-07-29T02:25:23.610Z,3.00
2022-07-29T02:27:54.662Z,2.85
2022-07-29T02:30:26.800Z,2.75
2022-07-29T02:32:57.837Z,2.40
2022-07-29T02:35:25.449Z,3.17
2022-07-29T02:38:16.569Z,2.97
2022-07-29T02:40:47.881Z,2.78
2022-07-29T02:45:48.374Z,4.20
2022-07-29T02:48:31.531Z,6.10
2022-07-29T02:51:08.251Z,5.47
2022-07-29T02:53:38.501Z,4.88
2022-07-29T02:56:12.103Z,4.72
2022-07-29T02:58:49.129Z,5.25
2022-07-29T03:01:24.549Z,5.03
2022-07-29T03:03:54.608Z,4.18
2022-07-29T03:06:31.090Z,3.45
2022-07-29T03:09:13.585Z,4.03
2022-07-29T03:11:49.562Z,4.57
2022-07-29T03:14:22.142Z,4.47
2022-07-29T03:16:52.198Z,4.60
2022-07-29T03:19:21.302Z,3.97
2022-07-29T03:21:48.805Z,4.80
2022-07-29T03:24:34.088Z,4.70
2022-07-29T03:27:04.624Z,3.53
2022-07-29T03:29:34.083Z,3.63
2022-07-29T03:32:09.120Z,4.20
2022-07-29T03:34:42.241Z,4.38
2022-07-29T03:37:09.712Z,4.15
2022-07-29T03:39:41.990Z,3.20
2022-07-29T03:42:13.166Z,3.33
2022-07-29T03:44:43.059Z,3.45
2022-07-29T03:47:12.014Z,2.88
2022-07-29T03:49:41.965Z,2.78
2022-07-29T03:52:11.462Z,2.63
2022-07-29T03:54:38.400Z,2.92
2022-07-29T03:57:08.106Z,3.03
2022-07-29T03:59:35.558Z,2.80
2022-07-29T04:02:05.441Z,2.80
2022-07-29T04:04:37.053Z,3.13
2022-07-29T04:07:04.635Z,3.10
2022-07-29T04:09:34.100Z,2.78
2022-07-29T04:12:04.444Z,2.80
2022-07-29T04:14:35.634Z,2.85
2022-07-29T04:17:04.230Z,3.60
2022-07-29T04:19:32.195Z,2.55
2022-07-29T04:22:04.765Z,2.58
2022-07-29T04:24:31.650Z,2.67
2022-07-29T04:26:58.608Z,2.17
2022-07-29T04:29:25.592Z,2.40
2022-07-29T04:31:54.604Z,2.47
2022-07-29T04:34:27.932Z,2.05
2022-07-29T04:36:56.168Z,2.83
2022-07-29T04:39:25.463Z,2.80
2022-07-29T04:41:59.113Z,2.35
2022-07-29T04:44:28.683Z,2.33
2022-07-29T04:46:56.628Z,2.47
2022-07-29T04:49:24.254Z,2.28
2022-07-29T04:51:53.597Z,2.13
2022-07-29T04:54:20.477Z,2.42
2022-07-29T04:56:49.622Z,2.55
2022-07-29T04:59:16.578Z,2.25
2022-07-29T05:01:43.518Z,2.47
2022-07-29T05:04:13.992Z,2.78
2022-07-29T05:06:41.138Z,2.72
2022-07-29T05:09:12.808Z,2.95
2022-07-29T05:11:41.849Z,2.90
2022-07-29T05:14:08.795Z,2.80
2022-07-29T05:16:35.681Z,2.83
2022-07-29T05:19:05.548Z,3.15
2022-07-29T05:21:34.669Z,3.28
2022-07-29T05:24:06.493Z,3.03
2022-07-29T05:26:33.691Z,3.22
2022-07-29T05:29:05.390Z,3.35
2022-07-29T05:31:32.362Z,2.88
2022-07-29T05:33:59.249Z,2.80
2022-07-29T05:36:26.549Z,3.38
2022-07-29T05:38:56.043Z,4.22
2022-07-29T05:41:22.979Z,3.92
2022-07-29T05:43:49.966Z,3.97
2022-07-29T05:46:20.647Z,3.90
2022-07-29T05:48:49.705Z,4.00
2022-07-29T05:51:16.712Z,3.83
2022-07-29T05:53:43.748Z,4.47
2022-07-29T05:56:10.687Z,5.30
2022-07-29T05:58:39.915Z,5.60
2022-07-29T06:01:06.846Z,5.57
2022-07-29T06:03:33.857Z,5.88
2022-07-29T06:06:00.744Z,5.40
2022-07-29T06:08:35.176Z,6.07
2022-07-29T06:11:05.721Z,5.63
2022-07-29T06:13:35.100Z,5.03
2022-07-29T06:16:02.200Z,5.90
2022-07-29T06:18:29.359Z,5.90
2022-07-29T06:21:02.139Z,6.00
2022-07-29T06:23:29.167Z,5.88
2022-07-29T06:25:58.332Z,5.35
2022-07-29T06:28:25.218Z,4.97
2022-07-29T06:30:52.119Z,5.57
2022-07-29T06:33:20.000Z,4.68
2022-07-29T06:35:53.364Z,3.38
2022-07-29T06:38:30.173Z,3.70
2022-07-29T06:41:02.105Z,2.95
2022-07-29T06:43:51.821Z,3.00
2022-07-29T06:46:23.814Z,2.35
2022-07-29T06:51:23.105Z,2.55
2022-07-29T06:53:58.188Z,2.42
2022-07-29T06:56:39.337Z,3.28
2022-07-29T06:59:09.103Z,4.00
2022-07-29T07:01:42.470Z,3.70
2022-07-29T07:04:12.686Z,3.22
2022-07-29T07:06:40.203Z,3.72
2022-07-29T07:09:07.483Z,3.65
2022-07-29T07:11:34.831Z,3.80
2022-07-29T07:14:03.843Z,3.55
2022-07-29T07:16:32.839Z,3.10
2022-07-29T07:19:00.338Z,3.15
2022-07-29T07:21:30.304Z,3.13
2022-07-29T07:23:58.369Z,2.60
2022-07-29T07:26:26.068Z,2.83
2022-07-29T07:28:55.213Z,3.13
2022-07-29T07:31:22.241Z,2.90
2022-07-29T07:33:52.619Z,3.45
2022-07-29T07:36:24.160Z,2.70
2022-07-29T07:38:53.395Z,3.13
2022-07-29T07:41:20.441Z,2.75
2022-07-29T07:43:49.959Z,2.80
2022-07-29T07:46:19.506Z,3.30
2022-07-29T07:48:48.802Z,3.33
2022-07-29T07:51:18.001Z,3.40
2022-07-29T07:53:51.478Z,3.30
2022-07-29T07:56:20.960Z,3.15
2022-07-29T07:58:47.906Z,3.47
2022-07-29T08:01:14.914Z,3.67
2022-07-29T08:03:46.722Z,3.72
2022-07-29T08:06:13.689Z,3.30
2022-07-29T08:08:40.549Z,3.35
2022-07-29T08:11:09.700Z,3.88
2022-07-29T08:13:41.559Z,3.42
2022-07-29T08:16:14.347Z,3.63
2022-07-29T08:18:43.380Z,3.05
2022-07-29T08:21:10.415Z,3.38
2022-07-29T08:23:46.239Z,3.25
2022-07-29T08:26:16.152Z,3.08
2022-07-29T08:28:50.465Z,2.85
2022-07-29T08:31:18.030Z,3.38
2022-07-29T08:33:48.269Z,3.47
2022-07-29T08:36:18.183Z,3.03
2022-07-29T08:38:45.141Z,3.20
2022-07-29T08:41:14.575Z,3.10
2022-07-29T08:43:42.760Z,3.30
2022-07-29T08:46:12.028Z,3.25
2022-07-29T08:48:42.728Z,2.78
2022-07-29T08:51:15.016Z,2.67
2022-07-29T08:53:44.809Z,3.08
2022-07-29T08:56:18.242Z,2.65
2022-07-29T08:58:51.636Z,2.60
2022-07-29T09:01:35.840Z,2.63
2022-07-29T09:04:11.402Z,2.58
2022-07-29T09:06:46.344Z,2.63
2022-07-29T09:09:15.179Z,2.95
2022-07-29T09:11:43.294Z,2.83
2022-07-29T09:14:17.410Z,2.50
2022-07-29T09:16:54.062Z,2.80
2022-07-29T09:19:37.406Z,2.67
2022-07-29T09:22:11.139Z,2.75
2022-07-29T09:24:48.457Z,2.28
2022-07-29T09:27:29.982Z,4.13
2022-07-29T09:30:03.843Z,2.78
2022-07-29T09:32:34.101Z,2.78
2022-07-29T09:35:18.395Z,3.05
2022-07-29T09:37:46.178Z,2.78
2022-07-29T09:40:23.474Z,2.72
2022-07-29T09:42:56.501Z,2.58
2022-07-29T09:45:44.159Z,1.95
2022-07-29T09:48:22.133Z,2.53
2022-07-29T09:50:50.752Z,2.42
2022-07-29T09:53:38.516Z,2.20
2022-07-29T09:56:08.576Z,1.85
2022-07-29T09:58:39.244Z,2.10
2022-07-29T10:01:08.267Z,2.60
2022-07-29T10:03:53.045Z,2.17
2022-07-29T10:06:20.114Z,2.05
2022-07-29T10:08:53.441Z,2.28
2022-07-29T10:11:23.526Z,2.80
2022-07-29T10:13:50.595Z,2.78
2022-07-29T10:16:17.961Z,2.17
2022-07-29T10:18:45.769Z,2.45
2022-07-29T10:21:34.896Z,2.28
2022-07-29T10:24:02.235Z,2.55
2022-07-29T10:26:34.442Z,2.72
2022-07-29T10:29:02.133Z,2.75
2022-07-29T10:32:02.514Z,2.20
2022-07-29T10:35:02.656Z,1.90
2022-07-29T10:38:12.437Z,2.38
2022-07-29T10:41:36.394Z,1.98
2022-07-29T10:44:26.063Z,2.53
2022-07-29T10:46:54.494Z,2.40
2022-07-29T10:49:27.833Z,2.30
2022-07-29T10:52:11.427Z,2.17
2022-07-29T10:54:42.585Z,2.28
2022-07-29T10:57:14.142Z,2.35
2022-07-29T10:59:43.234Z,2.28
2022-07-29T11:02:42.387Z,2.05
2022-07-29T11:05:12.742Z,2.30
2022-07-29T11:08:02.649Z,1.92
2022-07-29T11:10:31.130Z,2.03
2022-07-29T11:13:04.223Z,2.08
2022-07-29T11:15:56.592Z,1.85
2022-07-29T11:18:25.762Z,1.92
2022-07-29T11:20:55.464Z,2.20
2022-07-29T11:26:26.055Z,1.70
2022-07-29T11:28:57.366Z,1.77
2022-07-29T11:31:45.322Z,1.85
2022-07-29T11:34:36.671Z,2.00
2022-07-29T11:37:12.557Z,2.08
2022-07-29T11:40:02.144Z,1.98
2022-07-29T11:42:33.069Z,1.85
2022-07-29T11:45:43.363Z,1.67
2022-07-29T11:48:29.894Z,1.50
2022-07-29T11:51:00.527Z,1.67
2022-07-29T11:56:17.960Z,1.70
2022-07-29T11:58:48.279Z,1.45
2022-07-29T12:01:18.760Z,1.58
2022-07-29T12:03:46.565Z,1.40
2022-07-29T12:06:18.378Z,1.65
2022-07-29T12:08:48.049Z,1.63
2022-07-29T12:11:22.764Z,1.83
2022-07-29T12:13:52.496Z,1.60
2022-07-29T12:16:25.502Z,1.92
2022-07-29T12:18:59.311Z,1.60
2022-07-29T12:21:28.598Z,1.73
2022-07-29T12:24:03.373Z,1.45
2022-07-29T12:26:36.923Z,1.57
2022-07-29T12:29:14.767Z,1.75
2022-07-29T12:31:45.462Z,1.70
2022-07-29T12:34:15.013Z,1.67
2022-07-29T12:36:46.007Z,2.08
2022-07-29T12:39:13.484Z,1.95
2022-07-29T12:41:42.996Z,1.83
2022-07-29T12:44:10.244Z,2.17
2022-07-29T12:46:39.847Z,2.15
2022-07-29T12:49:06.958Z,1.75
2022-07-29T12:51:44.039Z,1.95
2022-07-29T12:54:17.195Z,4.00
2022-07-29T12:56:47.986Z,2.78
2022-07-29T12:59:21.132Z,2.88
2022-07-29T13:01:54.572Z,2.58
2022-07-29T13:04:31.241Z,2.00
2022-07-29T13:07:10.373Z,2.47
2022-07-29T13:09:48.750Z,1.73
2022-07-29T13:12:16.214Z,2.05
2022-07-29T13:14:51.472Z,1.77
2022-07-29T13:17:32.548Z,1.90
2022-07-29T13:20:13.598Z,1.80
2022-07-29T13:22:44.485Z,1.60
2022-07-29T13:25:11.600Z,1.58
2022-07-29T13:27:40.548Z,1.45
2022-07-29T13:30:12.338Z,1.70
2022-07-29T13:32:41.521Z,1.90
2022-07-29T13:35:11.081Z,2.05
2022-07-29T13:37:45.238Z,2.13
2022-07-29T13:40:13.338Z,2.13
2022-07-29T13:42:43.547Z,2.38
2022-07-29T13:45:13.070Z,2.20
2022-07-29T13:47:42.527Z,2.55
2022-07-29T13:50:14.395Z,1.90
2022-07-29T13:52:41.290Z,1.92
2022-07-29T13:55:09.257Z,2.20
2022-07-29T13:57:39.233Z,2.10
2022-07-29T14:00:10.229Z,2.08
2022-07-29T14:02:39.310Z,2.20
2022-07-29T14:05:08.766Z,2.20
2022-07-29T14:07:39.727Z,2.28
2022-07-29T14:10:08.893Z,2.63
2022-07-29T14:12:35.840Z,2.30
2022-07-29T14:15:05.308Z,2.80
2022-07-29T14:17:32.260Z,2.83
2022-07-29T14:19:59.217Z,2.80
2022-07-29T14:22:26.540Z,2.47
2022-07-29T14:24:53.562Z,2.70
2022-07-29T14:27:20.452Z,2.60
2022-07-29T14:30:06.333Z,2.33
2022-07-29T14:32:33.258Z,2.28
2022-07-29T14:35:02.400Z,3.22
2022-07-29T14:37:36.399Z,3.20
2022-07-29T14:40:08.391Z,3.17
2022-07-29T14:42:35.344Z,2.70
2022-07-29T14:45:02.291Z,2.70
2022-07-29T14:47:29.219Z,2.95
2022-07-29T14:49:56.194Z,3.75
2022-07-29T14:52:23.169Z,2.90
2022-07-29T14:54:50.290Z,2.58
2022-07-29T14:57:17.433Z,2.30
2022-07-29T14:59:48.631Z,2.50
2022-07-29T15:04:46.964Z,1.92
2022-07-29T15:07:13.977Z,2.70
2022-07-29T15:09:49.604Z,2.35
2022-07-29T15:12:17.189Z,2.67
2022-07-29T15:14:44.141Z,2.47
2022-07-29T15:17:13.831Z,2.33
2022-07-29T15:19:44.997Z,2.60
2022-07-29T15:22:14.492Z,2.78
2022-07-29T15:24:41.396Z,2.53
2022-07-29T15:27:08.320Z,2.35
2022-07-29T15:29:37.917Z,2.58
2022-07-29T15:32:10.088Z,2.25
2022-07-29T15:34:37.881Z,2.38
2022-07-29T15:37:07.640Z,2.35
2022-07-29T15:39:39.307Z,2.70
2022-07-29T15:42:06.438Z,2.72
2022-07-29T15:44:38.557Z,2.20
2022-07-29T15:47:07.839Z,2.40
2022-07-29T15:49:47.887Z,2.40
2022-07-29T15:52:25.720Z,2.35
2022-07-29T15:54:57.645Z,2.42
2022-07-29T15:57:27.767Z,2.50
2022-07-29T15:59:54.815Z,2.35
2022-07-29T16:02:21.869Z,2.33
2022-07-29T16:04:51.393Z,2.50
2022-07-29T16:07:20.759Z,2.33
2022-07-29T16:09:52.788Z,2.33
2022-07-29T16:12:20.116Z,2.72
2022-07-29T16:14:49.440Z,2.35
2022-07-29T16:17:19.736Z,2.08
2022-07-29T16:19:46.891Z,2.38
2022-07-29T16:22:16.865Z,2.22
2022-07-29T16:24:46.979Z,2.22
2022-07-29T16:27:16.410Z,2.50
2022-07-29T16:29:43.308Z,2.03
2022-07-29T16:32:10.330Z,2.35
2022-07-29T16:34:37.693Z,1.92
2022-07-29T16:37:05.072Z,2.10
2022-07-29T16:39:32.270Z,1.90
2022-07-29T16:42:05.028Z,2.20
2022-07-29T16:44:33.210Z,2.65
2022-07-29T16:47:01.831Z,2.50
2022-07-29T16:49:31.030Z,2.05
2022-07-29T16:51:57.959Z,1.90
2022-07-29T16:54:26.462Z,2.33
2022-07-29T16:56:54.289Z,2.28
2022-07-29T16:59:21.228Z,2.22
2022-07-29T17:01:48.572Z,2.30
2022-07-29T17:04:15.830Z,2.10
2022-07-29T17:06:45.450Z,2.40
2022-07-29T17:09:15.635Z,2.25
2022-07-29T17:11:53.448Z,1.88
2022-07-29T17:14:26.865Z,2.53
2022-07-29T17:17:02.024Z,2.15
2022-07-29T17:19:32.840Z,1.92
2022-07-29T17:22:10.509Z,1.70
2022-07-29T17:24:41.085Z,2.05
2022-07-29T17:27:09.477Z,2.08
2022-07-29T17:29:36.683Z,2.10
2022-07-29T17:32:04.106Z,1.80
2022-07-29T17:34:38.553Z,2.05
2022-07-29T17:37:07.873Z,2.35
2022-07-29T17:39:35.614Z,2.00
2022-07-29T17:42:06.929Z,2.13
2022-07-29T17:47:07.915Z,1.88
2022-07-29T17:49:42.498Z,2.17
2022-07-29T17:52:11.769Z,2.10
2022-07-29T17:54:38.739Z,2.03
2022-07-29T17:57:05.692Z,1.88
2022-07-29T17:59:32.698Z,1.70
2022-07-29T18:02:02.679Z,1.80
2022-07-29T18:04:31.352Z,2.08
2022-07-29T18:06:58.548Z,1.88
2022-07-29T18:09:25.643Z,1.80
2022-07-29T18:11:52.599Z,1.83
2022-07-29T18:14:19.522Z,1.52
2022-07-29T18:16:46.515Z,1.70
2022-07-29T18:19:16.099Z,2.05
2022-07-29T18:21:51.895Z,1.90
2022-07-29T18:24:25.392Z,1.90
2022-07-29T18:26:52.930Z,1.90
2022-07-29T18:29:19.855Z,1.40
2022-07-29T18:31:49.133Z,1.80
2022-07-29T18:34:17.075Z,1.77
2022-07-29T18:36:45.634Z,2.03
2022-07-29T18:39:13.091Z,2.10
2022-07-29T18:41:51.302Z,2.28
2022-07-29T18:44:21.854Z,2.28
2022-07-29T18:46:50.848Z,2.10
2022-07-29T18:49:18.214Z,2.05
2022-07-29T18:51:45.179Z,2.22
2022-07-29T18:54:12.246Z,2.50
2022-07-29T18:56:39.158Z,2.22
2022-07-29T18:59:08.388Z,2.50
2022-07-29T19:01:35.460Z,2.28
2022-07-29T19:04:04.949Z,2.70
2022-07-29T19:06:31.915Z,2.42
2022-07-29T19:09:01.170Z,2.85
2022-07-29T19:11:30.430Z,2.60
2022-07-29T19:13:57.352Z,2.30
2022-07-29T19:16:26.943Z,2.55
2022-07-29T19:18:56.879Z,2.00
2022-07-29T19:21:24.924Z,2.13
2022-07-29T19:24:01.696Z,2.00
2022-07-29T19:26:42.039Z,2.75
2022-07-29T19:29:11.406Z,1.85
2022-07-29T19:31:38.385Z,1.98
2022-07-29T19:34:10.296Z,1.85
2022-07-29T19:36:38.459Z,2.22
2022-07-29T19:39:05.600Z,2.03
2022-07-29T19:41:32.650Z,2.13
2022-07-29T19:43:59.603Z,2.08
2022-07-29T19:46:29.050Z,2.20
2022-07-29T19:48:56.725Z,2.17
2022-07-29T19:51:24.150Z,1.67
2022-07-29T19:53:51.517Z,1.95
2022-07-29T19:56:18.440Z,1.80
2022-07-29T19:58:46.439Z,2.10
2022-07-29T20:01:14.733Z,1.88
2022-07-29T20:03:41.647Z,2.03
2022-07-29T20:06:08.727Z,2.47
2022-07-29T20:08:37.883Z,2.05
2022-07-29T20:11:07.484Z,2.10
2022-07-29T20:13:35.320Z,2.03
2022-07-29T20:16:08.121Z,1.70
2022-07-29T20:18:39.219Z,2.25
2022-07-29T20:21:09.180Z,1.65
2022-07-29T20:23:37.381Z,2.08
2022-07-29T20:26:08.679Z,1.90
2022-07-29T20:28:40.313Z,1.83
2022-07-29T20:31:07.456Z,2.00
2022-07-29T20:33:36.770Z,2.03
2022-07-29T20:36:06.561Z,2.40
2022-07-29T20:38:33.496Z,1.90
2022-07-29T20:41:02.769Z,2.05
2022-07-29T20:43:29.744Z,2.00
2022-07-29T20:45:58.970Z,2.03
2022-07-29T20:48:25.910Z,2.17
2022-07-29T20:50:55.049Z,2.20
2022-07-29T20:53:24.225Z,2.08
2022-07-29T20:55:51.444Z,2.28
2022-07-29T20:58:19.745Z,2.33
2022-07-29T21:00:49.145Z,2.03
2022-07-29T21:03:20.853Z,2.22
2022-07-29T21:05:47.878Z,2.17
2022-07-29T21:08:14.902Z,2.35
2022-07-29T21:10:47.144Z,2.25
2022-07-29T21:13:14.473Z,2.22
2022-07-29T21:15:46.479Z,2.08
2022-07-29T21:18:32.459Z,2.13
2022-07-29T21:21:04.997Z,2.08
2022-07-29T21:23:34.420Z,2.80
2022-07-29T21:26:01.778Z,2.20
2022-07-29T21:28:38.501Z,2.33
2022-07-29T21:31:09.369Z,2.30
2022-07-29T21:33:37.336Z,2.47
2022-07-29T21:36:35.548Z,2.08
2022-07-29T21:38:55.635Z,1.90
2022-07-29T21:41:24.769Z,2.03
2022-07-29T21:43:51.691Z,2.10
2022-07-29T21:46:21.386Z,2.63
2022-07-29T21:48:51.738Z,2.17
2022-07-29T21:51:18.668Z,2.08
2022-07-29T21:53:45.628Z,2.75
2022-07-29T21:56:14.383Z,2.38
2022-07-29T21:58:46.664Z,2.55
2022-07-29T22:01:15.667Z,2.80
2022-07-29T22:03:42.629Z,2.40
2022-07-29T22:06:11.254Z,2.30
2022-07-29T22:08:45.642Z,2.45
2022-07-29T22:11:15.533Z,2.70
2022-07-29T22:13:44.670Z,2.40
2022-07-29T22:16:14.958Z,2.33
2022-07-29T22:18:45.054Z,2.22
2022-07-29T22:21:14.789Z,2.17
2022-07-29T22:23:44.181Z,2.20
2022-07-29T22:26:13.147Z,2.35
2022-07-29T22:28:40.124Z,2.35
2022-07-29T22:31:07.849Z,2.50
2022-07-29T22:33:34.803Z,2.78
2022-07-29T22:36:04.110Z,2.80
2022-07-29T22:38:31.068Z,2.45
2022-07-29T22:41:00.593Z,2.80
2022-07-29T22:43:28.568Z,2.20
2022-07-29T22:45:55.560Z,2.50
2022-07-29T22:48:22.642Z,2.42
2022-07-29T22:50:49.598Z,2.38
2022-07-29T22:53:16.763Z,2.45
2022-07-29T22:55:43.757Z,2.47
2022-07-29T22:58:10.721Z,2.30
2022-07-29T23:00:37.715Z,2.30
2022-07-29T23:03:09.402Z,2.53
2022-07-29T23:05:38.876Z,2.42
2022-07-29T23:08:05.945Z,2.38
2022-07-29T23:10:32.937Z,2.63
2022-07-29T23:12:59.916Z,1.77
2022-07-29T23:15:31.599Z,2.47
2022-07-29T23:17:58.903Z,2.45
2022-07-29T23:20:28.151Z,2.53
2022-07-29T23:22:55.237Z,2.58
2022-07-29T23:25:27.780Z,2.20
2022-07-29T23:27:54.687Z,2.33
2022-07-29T23:30:26.354Z,2.22
2022-07-29T23:32:54.052Z,2.38
2022-07-29T23:35:24.134Z,2.30
2022-07-29T23:37:53.564Z,2.65
2022-07-29T23:40:20.498Z,2.65
2022-07-29T23:42:47.389Z,2.55
2022-07-29T23:45:14.695Z,2.28
2022-07-29T23:47:42.267Z,2.63
2022-07-29T23:50:12.589Z,2.33
2022-07-29T23:52:41.060Z,2.42
2022-07-29T23:55:36.633Z,2.70
2022-07-29T23:57:58.890Z,2.38
